»·PEaware :: ASA1897 KLAS-KSFO

ASA1897 :: KLAS-KSFO

FLIGHT INFORMATION

Flight Status: Arrived
Operator:
Alaska Airlines
More flights by this operator :: More flights under this callsign
Pilot: Giovanni N. (25716)
Aircraft: AIRBUS A319
(A319)
More flights by this aircraft type
Origin: KLAS McCarran Intl
United States
Destination: KSFO San Francisco Intl
United States
More flights between these airports :: More routes between these airports
Route: SHEAD1 KENNO RUSME DYAMD5
File this flight plan on PilotEdge
Remarks: RMK / SIMBRIEF
Altitude:
(Current/Filed)
38,000ft
Speed:
(Current/Filed)
448kts
Departed: 25-Mar-20 01:44 PM
Arrived: 25-Mar-20 02:55 PM
Distance/Time
Traveled:
359nm/1:11
Distance/Time
To Go:
Arrived

Flight Plot

Page will automatically refresh every two minutes.

Flight plan parsing failed; only flown route is shown


Map Options




Map Legend


Flown Route
Filed Route
Departure Airport
Arrival Airport
Navaid (VOR, NDB)
Fix

Horizontal Profiles

Position Reports

Time Latitude Longitude Heading Altitude Ground
Speed
25-Mar-20 12:56 36.079583 -115.146668 29 2108ft 0kts
25-Mar-20 12:57 36.079583 -115.146668 29 2108ft 0kts
25-Mar-20 12:58 36.079583 -115.146668 29 2108ft 0kts
25-Mar-20 12:59 36.079583 -115.146668 29 2108ft 0kts
25-Mar-20 13:00 36.079583 -115.146668 29 2108ft 0kts
25-Mar-20 13:01 36.079583 -115.146668 29 2108ft 0kts
25-Mar-20 13:02 36.079583 -115.146668 29 2108ft 0kts
25-Mar-20 13:03 36.079583 -115.146668 29 2108ft 0kts
25-Mar-20 13:04 36.079583 -115.146668 29 2108ft 0kts
25-Mar-20 13:05 36.079583 -115.146668 29 2108ft 0kts
25-Mar-20 13:06 36.079583 -115.146668 29 2108ft 0kts
25-Mar-20 13:07 36.079583 -115.146668 29 2108ft 0kts
25-Mar-20 13:08 36.079583 -115.146668 29 2108ft 0kts
25-Mar-20 13:09 36.079583 -115.146668 29 2108ft 0kts
25-Mar-20 13:10 36.079583 -115.146668 29 2108ft 0kts
25-Mar-20 13:11 36.079583 -115.146668 29 2108ft 0kts
25-Mar-20 13:12 36.079583 -115.146668 29 2108ft 0kts
25-Mar-20 13:13 36.079583 -115.146668 29 2108ft 0kts
25-Mar-20 13:14 36.079583 -115.146668 29 2108ft 0kts
25-Mar-20 13:15 36.079583 -115.146668 29 2108ft 0kts
25-Mar-20 13:17 36.079583 -115.146668 29 2108ft 0kts
25-Mar-20 13:18 36.079583 -115.146668 29 2108ft 0kts
25-Mar-20 13:19 36.079583 -115.146668 29 2108ft 0kts
25-Mar-20 13:20 36.079583 -115.146668 29 2108ft 0kts
25-Mar-20 13:21 36.079583 -115.146668 29 2108ft 0kts
25-Mar-20 13:22 36.079583 -115.146668 29 2108ft 0kts
25-Mar-20 13:23 36.079583 -115.146668 29 2108ft 0kts
25-Mar-20 13:24 36.079583 -115.146668 29 2108ft 0kts
25-Mar-20 13:25 36.079583 -115.146668 29 2108ft 0kts
25-Mar-20 13:26 36.079583 -115.146668 29 2108ft 0kts
25-Mar-20 13:27 36.079583 -115.146668 29 2109ft 0kts
25-Mar-20 13:28 36.079245 -115.146903 29 2109ft 2kts
25-Mar-20 13:29 36.079230 -115.147478 151 2109ft 0kts
25-Mar-20 13:30 36.079301 -115.147516 155 2109ft 0kts
25-Mar-20 13:31 36.079301 -115.147516 155 2108ft 0kts
25-Mar-20 13:32 36.079301 -115.147516 155 2108ft 0kts
25-Mar-20 13:33 36.079301 -115.147516 155 2108ft 0kts
25-Mar-20 13:34 36.079301 -115.147516 155 2108ft 0kts
25-Mar-20 13:34 36.079301 -115.147516 155 2108ft 0kts
25-Mar-20 13:36 36.079260 -115.147492 154 2108ft 1kts
25-Mar-20 13:37 36.078492 -115.146569 96 2108ft 8kts
25-Mar-20 13:37 36.077589 -115.144048 108 2108ft 11kts
25-Mar-20 13:38 36.077535 -115.139202 91 2108ft 15kts
25-Mar-20 13:40 36.077525 -115.132398 90 2108ft 17kts
25-Mar-20 13:40 36.077559 -115.127244 90 2108ft 18kts
25-Mar-20 13:41 36.077459 -115.126275 119 2108ft 0kts
25-Mar-20 13:42 36.076704 -115.125999 188 2108ft 10kts
25-Mar-20 13:43 36.076965 -115.151321 267 2274ft 185kts
25-Mar-20 13:44 36.077347 -115.223928 262 5681ft 237kts
25-Mar-20 13:45 36.026584 -115.276213 200 6976ft 262kts
25-Mar-20 13:46 35.959671 -115.316087 222 8343ft 271kts
25-Mar-20 13:47 35.905314 -115.381856 224 8984ft 269kts
25-Mar-20 13:48 35.886948 -115.474021 268 10974ft 322kts
25-Mar-20 13:49 35.889724 -115.600005 269 10985ft 374kts
25-Mar-20 13:50 35.892144 -115.729416 268 13068ft 379kts
25-Mar-20 13:51 35.894271 -115.859864 266 16367ft 381kts
25-Mar-20 13:52 35.916041 -115.990469 297 18906ft 413kts
25-Mar-20 13:53 36.001957 -116.092931 306 20838ft 435kts
25-Mar-20 13:54 36.092182 -116.197091 306 22694ft 445kts
25-Mar-20 13:55 36.184761 -116.303659 305 24204ft 455kts
25-Mar-20 13:56 36.277816 -116.411400 303 26023ft 451kts
25-Mar-20 13:57 36.369590 -116.518470 302 27708ft 447kts
25-Mar-20 13:58 36.458523 -116.622599 301 29231ft 442kts
25-Mar-20 13:59 36.549123 -116.726961 303 30706ft 446kts
25-Mar-20 14:00 36.654105 -116.816622 311 32033ft 462kts
25-Mar-20 14:01 36.764116 -116.900061 311 33186ft 459kts
25-Mar-20 14:02 36.873235 -116.983364 311 34197ft 456kts
25-Mar-20 14:03 36.982772 -117.067314 311 35049ft 454kts
25-Mar-20 14:04 37.089973 -117.149689 312 35814ft 451kts
25-Mar-20 14:05 37.197434 -117.232111 312 36225ft 451kts
25-Mar-20 14:06 37.302782 -117.316737 307 36564ft 440kts
25-Mar-20 14:07 37.396260 -117.414754 304 36827ft 433kts
25-Mar-20 14:08 37.473304 -117.524278 285 37015ft 396kts
25-Mar-20 14:09 37.504563 -117.651899 266 37100ft 366kts
25-Mar-20 14:10 37.515450 -117.780567 266 37324ft 368kts
25-Mar-20 14:11 37.525943 -117.908554 266 37397ft 364kts
25-Mar-20 14:12 37.536116 -118.036462 266 37398ft 365kts
25-Mar-20 14:13 37.546172 -118.164678 266 37401ft 366kts
25-Mar-20 14:14 37.556066 -118.292953 266 37405ft 366kts
25-Mar-20 14:15 37.565848 -118.421356 266 37411ft 367kts
25-Mar-20 14:16 37.575584 -118.550661 266 37415ft 367kts
25-Mar-20 14:17 37.584977 -118.677610 265 37420ft 369kts
25-Mar-20 14:18 37.594531 -118.808491 266 37424ft 377kts
25-Mar-20 14:19 37.604121 -118.941486 266 37432ft 380kts
25-Mar-20 14:20 37.613182 -119.069557 266 37431ft 380kts
25-Mar-20 14:21 37.622394 -119.201756 266 37433ft 380kts
25-Mar-20 14:22 37.631521 -119.335212 266 37435ft 381kts
25-Mar-20 14:23 37.640540 -119.469373 266 37437ft 383kts
25-Mar-20 14:24 37.649300 -119.600274 266 36764ft 361kts
25-Mar-20 14:25 37.657281 -119.723099 264 35794ft 349kts
25-Mar-20 14:26 37.665055 -119.844732 264 34814ft 342kts
25-Mar-20 14:27 37.672601 -119.964441 263 33837ft 338kts
25-Mar-20 14:28 37.679857 -120.081630 263 32870ft 335kts
25-Mar-20 14:29 37.687116 -120.200772 262 30365ft 345kts
25-Mar-20 14:30 37.694381 -120.321180 262 29032ft 338kts
25-Mar-20 14:31 37.694290 -120.438585 255 28026ft 326kts
25-Mar-20 14:32 37.682147 -120.549680 254 26452ft 325kts
25-Mar-20 14:33 37.669134 -120.662041 254 24565ft 323kts
25-Mar-20 14:34 37.656074 -120.773304 255 22864ft 308kts
25-Mar-20 14:35 37.643298 -120.878967 255 20922ft 305kts
25-Mar-20 14:36 37.630282 -120.984424 256 18978ft 304kts
25-Mar-20 14:37 37.616000 -121.090993 257 17004ft 306kts
25-Mar-20 14:38 37.601983 -121.195537 257 15536ft 298kts
25-Mar-20 14:39 37.588488 -121.299586 260 13881ft 300kts
25-Mar-20 14:40 37.576592 -121.404080 260 12283ft 300kts
25-Mar-20 14:41 37.564686 -121.507144 261 10780ft 298kts
25-Mar-20 14:42 37.553150 -121.605718 260 10138ft 263kts
25-Mar-20 14:43 37.533399 -121.698307 253 8918ft 274kts
25-Mar-20 14:44 37.511619 -121.789525 253 7993ft 269kts
25-Mar-20 14:45 37.490986 -121.875428 253 6980ft 239kts
25-Mar-20 14:46 37.469826 -121.955384 252 6358ft 238kts
25-Mar-20 14:47 37.474036 -122.032904 298 5293ft 231kts
25-Mar-20 14:48 37.504126 -122.101899 297 4258ft 208kts
25-Mar-20 14:49 37.528528 -122.159809 297 3517ft 179kts
25-Mar-20 14:50 37.551733 -122.215270 296 2567ft 174kts
25-Mar-20 14:51 37.572408 -122.264734 296 1675ft 135kts
25-Mar-20 14:52 37.589426 -122.304936 295 856ft 131kts
25-Mar-20 14:53 37.605838 -122.344354 294 247ft 123kts
25-Mar-20 14:54 37.619578 -122.377042 297 18ft 37kts
25-Mar-20 14:55 37.619494 -122.381626 299 17ft 13kts
25-Mar-20 14:56 37.619982 -122.385356 203 17ft 11kts
25-Mar-20 14:57 37.618800 -122.385189 152 18ft 1kts
25-Mar-20 14:58 37.618781 -122.385176 152 18ft 0kts
25-Mar-20 14:59 37.618781 -122.385176 152 18ft 0kts

Navigation Log

Ident Type
Flight plan parsing failed, navigation log unavailable